Abu Musa, Iran

5:44 AM IRST on February 10, 2016 (GMT +0330)
Bandar Lengeh | | Change Station
CLOSE
Current Station
Airport
Location: Bandar Lengeh,
Elevation: 75 ft
Nearby Weather Stations

Elev 75 ft 26.53 °N, 54.82 °E | Updated 14 minutes ago

Clear
Clear
59 °F
Feels Like 59 °F
N
5
Wind Variable Wind from North

Today
High -- | Low -- °F
--% Chance of Precip.
Yesterday
High -- | Low -- °F
Precip. -- in
Pressure 29.95 in
Visibility 5.0 miles
Clouds
Dew Point 34 °F
Humidity 39%
Rainfall 0.00 in
Snow Depth Not available.
6:29 AM 5:40 PM
Waxing Crescent, 3% visible
METAR OIBL 100200Z 01004KT 8000 NSC 15/01 Q1014
Pressure 29.95 in
Visibility 5.0 miles
Clouds
Dew Point 34 °F
Humidity 39%
Rainfall 0.00 in
Snow Depth Not available.
6:29 AM 5:40 PM
Waxing Crescent, 3% visible
METAR OIBL 100200Z 01004KT 8000 NSC 15/01 Q1014

10-Day Weather Forecast

No radar image for this location.
×

Almanac

Astronomy

Feb. 10, 2016 Rise Set
Actual Time
Civil Twilight
Nautical Twilight
Astronomical Twilight
Moon
Length of Visible Light
Length of Day
Tomorrow will be .
, % of the Moon is Illuminated

Today's Extremes

Country Highs Country Lows

Community

WunderPhotos

Upload Photos

1,891,760 photos uploaded!

WunderBlog® & News

Nearby

Air Quality

  Air Quality AQ Index Pollutant
Not available.

Snow Depth

Station Depth Elevation

Earthquake Activity

City Distance Mag. Time & Date
Minimum magnitude displayed is 2.5.

Coastal Water Temperatures

Place Temperature

Stations

Nearby Weather Stations

Station Location Temp. Windchill Dew Point Humidity Wind Precip. Elev Updated Type